sensor_id;sensor_type;location;lat;lon;timestamp;P1;durP1;ratioP1;P2;durP2;ratioP2
17251;SDS011;8742;51.716;8.790;2022-07-09T00:01:34;7.47;;;3.93;;
17251;SDS011;8742;51.716;8.790;2022-07-09T00:04:01;14.10;;;4.07;;
17251;SDS011;8742;51.716;8.790;2022-07-09T00:06:28;8.50;;;4.37;;
17251;SDS011;8742;51.716;8.790;2022-07-09T00:08:57;10.10;;;4.70;;
17251;SDS011;8742;51.716;8.790;2022-07-09T00:11:25;10.30;;;4.70;;
17251;SDS011;8742;51.716;8.790;2022-07-09T00:13:52;10.77;;;4.10;;
17251;SDS011;8742;51.716;8.790;2022-07-09T00:16:19;6.00;;;4.07;;
17251;SDS011;8742;51.716;8.790;2022-07-09T00:18:46;9.77;;;4.70;;
17251;SDS011;8742;51.716;8.790;2022-07-09T00:21:12;10.67;;;4.17;;
17251;SDS011;8742;51.716;8.790;2022-07-09T00:23:40;10.67;;;4.60;;
17251;SDS011;8742;51.716;8.790;2022-07-09T00:26:06;13.53;;;4.27;;
17251;SDS011;8742;51.716;8.790;2022-07-09T00:28:35;11.87;;;3.93;;
17251;SDS011;8742;51.716;8.790;2022-07-09T00:31:02;8.57;;;3.87;;
17251;SDS011;8742;51.716;8.790;2022-07-09T00:33:28;12.37;;;4.53;;
17251;SDS011;8742;51.716;8.790;2022-07-09T00:35:55;12.77;;;4.37;;
17251;SDS011;8742;51.716;8.790;2022-07-09T00:38:22;7.67;;;4.27;;
17251;SDS011;8742;51.716;8.790;2022-07-09T00:40:49;8.13;;;4.63;;
17251;SDS011;8742;51.716;8.790;2022-07-09T00:43:17;9.77;;;4.57;;
17251;SDS011;8742;51.716;8.790;2022-07-09T00:45:46;6.13;;;4.23;;
17251;SDS011;8742;51.716;8.790;2022-07-09T00:48:14;7.63;;;4.23;;
17251;SDS011;8742;51.716;8.790;2022-07-09T00:50:41;8.87;;;4.40;;
17251;SDS011;8742;51.716;8.790;2022-07-09T00:53:10;10.37;;;4.63;;
17251;SDS011;8742;51.716;8.790;2022-07-09T00:55:38;8.53;;;4.47;;
17251;SDS011;8742;51.716;8.790;2022-07-09T00:58:05;8.47;;;4.30;;
17251;SDS011;8742;51.716;8.790;2022-07-09T01:00:34;14.17;;;4.27;;
17251;SDS011;8742;51.716;8.790;2022-07-09T01:03:02;10.67;;;4.50;;
17251;SDS011;8742;51.716;8.790;2022-07-09T01:05:30;7.20;;;4.47;;
17251;SDS011;8742;51.716;8.790;2022-07-09T01:08:01;13.73;;;5.03;;
17251;SDS011;8742;51.716;8.790;2022-07-09T01:10:29;7.13;;;4.37;;
17251;SDS011;8742;51.716;8.790;2022-07-09T01:12:57;9.20;;;4.87;;
17251;SDS011;8742;51.716;8.790;2022-07-09T01:15:24;8.70;;;4.80;;
17251;SDS011;8742;51.716;8.790;2022-07-09T01:17:51;7.97;;;4.57;;
17251;SDS011;8742;51.716;8.790;2022-07-09T01:20:22;9.43;;;4.87;;
17251;SDS011;8742;51.716;8.790;2022-07-09T01:22:50;7.20;;;4.23;;
17251;SDS011;8742;51.716;8.790;2022-07-09T01:25:18;13.63;;;5.07;;
17251;SDS011;8742;51.716;8.790;2022-07-09T01:27:45;9.97;;;4.83;;
17251;SDS011;8742;51.716;8.790;2022-07-09T01:30:22;7.87;;;4.20;;
17251;SDS011;8742;51.716;8.790;2022-07-09T01:32:50;9.37;;;4.80;;
17251;SDS011;8742;51.716;8.790;2022-07-09T01:35:17;12.10;;;5.30;;
17251;SDS011;8742;51.716;8.790;2022-07-09T01:37:45;12.93;;;5.20;;
17251;SDS011;8742;51.716;8.790;2022-07-09T01:40:13;7.27;;;4.53;;
17251;SDS011;8742;51.716;8.790;2022-07-09T01:42:40;10.90;;;4.80;;
17251;SDS011;8742;51.716;8.790;2022-07-09T01:45:07;8.57;;;4.80;;
17251;SDS011;8742;51.716;8.790;2022-07-09T01:47:35;9.23;;;5.10;;
17251;SDS011;8742;51.716;8.790;2022-07-09T01:50:02;10.93;;;4.87;;
17251;SDS011;8742;51.716;8.790;2022-07-09T01:52:29;9.13;;;5.17;;
17251;SDS011;8742;51.716;8.790;2022-07-09T01:54:58;8.17;;;4.90;;
17251;SDS011;8742;51.716;8.790;2022-07-09T01:57:25;10.07;;;4.60;;
17251;SDS011;8742;51.716;8.790;2022-07-09T01:59:52;12.10;;;5.50;;
17251;SDS011;8742;51.716;8.790;2022-07-09T02:02:19;8.20;;;5.13;;
17251;SDS011;8742;51.716;8.790;2022-07-09T02:04:46;13.93;;;5.17;;
17251;SDS011;8742;51.716;8.790;2022-07-09T02:07:13;10.80;;;5.83;;
17251;SDS011;8742;51.716;8.790;2022-07-09T02:09:41;8.93;;;4.87;;
17251;SDS011;8742;51.716;8.790;2022-07-09T02:12:09;15.17;;;6.00;;
17251;SDS011;8742;51.716;8.790;2022-07-09T02:14:36;9.23;;;5.30;;
17251;SDS011;8742;51.716;8.790;2022-07-09T02:17:03;9.87;;;5.13;;
17251;SDS011;8742;51.716;8.790;2022-07-09T02:19:31;12.83;;;5.53;;
17251;SDS011;8742;51.716;8.790;2022-07-09T02:21:57;10.70;;;5.10;;
17251;SDS011;8742;51.716;8.790;2022-07-09T02:24:24;12.30;;;4.97;;
17251;SDS011;8742;51.716;8.790;2022-07-09T02:26:51;11.03;;;5.17;;
17251;SDS011;8742;51.716;8.790;2022-07-09T02:29:20;12.80;;;5.47;;
17251;SDS011;8742;51.716;8.790;2022-07-09T02:31:47;11.27;;;5.60;;
17251;SDS011;8742;51.716;8.790;2022-07-09T02:34:13;12.37;;;5.60;;
17251;SDS011;8742;51.716;8.790;2022-07-09T02:36:40;13.47;;;5.63;;
17251;SDS011;8742;51.716;8.790;2022-07-09T02:39:07;8.33;;;4.60;;
17251;SDS011;8742;51.716;8.790;2022-07-09T02:41:34;11.60;;;5.60;;
17251;SDS011;8742;51.716;8.790;2022-07-09T02:44:01;13.90;;;5.57;;
17251;SDS011;8742;51.716;8.790;2022-07-09T02:46:29;10.10;;;5.37;;
17251;SDS011;8742;51.716;8.790;2022-07-09T02:48:56;11.90;;;6.13;;
17251;SDS011;8742;51.716;8.790;2022-07-09T02:51:23;13.40;;;5.87;;
17251;SDS011;8742;51.716;8.790;2022-07-09T02:53:50;10.27;;;6.17;;
17251;SDS011;8742;51.716;8.790;2022-07-09T02:56:17;13.93;;;6.20;;
17251;SDS011;8742;51.716;8.790;2022-07-09T02:58:44;13.30;;;5.43;;
17251;SDS011;8742;51.716;8.790;2022-07-09T03:01:11;7.83;;;5.00;;
17251;SDS011;8742;51.716;8.790;2022-07-09T03:03:39;10.90;;;6.63;;
17251;SDS011;8742;51.716;8.790;2022-07-09T03:06:06;16.00;;;6.00;;
17251;SDS011;8742;51.716;8.790;2022-07-09T03:08:33;10.87;;;6.30;;
17251;SDS011;8742;51.716;8.790;2022-07-09T03:11:00;14.30;;;6.07;;
17251;SDS011;8742;51.716;8.790;2022-07-09T03:13:27;12.57;;;6.00;;
17251;SDS011;8742;51.716;8.790;2022-07-09T03:15:54;17.40;;;6.53;;
17251;SDS011;8742;51.716;8.790;2022-07-09T03:18:21;15.90;;;6.80;;
17251;SDS011;8742;51.716;8.790;2022-07-09T03:20:49;9.43;;;6.17;;
17251;SDS011;8742;51.716;8.790;2022-07-09T03:23:16;9.30;;;5.97;;
17251;SDS011;8742;51.716;8.790;2022-07-09T03:25:44;11.27;;;6.33;;
17251;SDS011;8742;51.716;8.790;2022-07-09T03:28:10;17.20;;;6.43;;
17251;SDS011;8742;51.716;8.790;2022-07-09T03:30:37;13.83;;;6.87;;
17251;SDS011;8742;51.716;8.790;2022-07-09T03:33:04;10.10;;;6.00;;
17251;SDS011;8742;51.716;8.790;2022-07-09T03:35:31;10.37;;;6.37;;
17251;SDS011;8742;51.716;8.790;2022-07-09T03:37:59;13.00;;;5.97;;
17251;SDS011;8742;51.716;8.790;2022-07-09T03:40:26;12.37;;;6.37;;
17251;SDS011;8742;51.716;8.790;2022-07-09T03:42:54;10.43;;;6.97;;
17251;SDS011;8742;51.716;8.790;2022-07-09T03:45:21;13.20;;;6.40;;
17251;SDS011;8742;51.716;8.790;2022-07-09T03:47:48;11.47;;;6.77;;
17251;SDS011;8742;51.716;8.790;2022-07-09T03:50:15;17.17;;;7.13;;
17251;SDS011;8742;51.716;8.790;2022-07-09T03:52:42;10.37;;;5.93;;
17251;SDS011;8742;51.716;8.790;2022-07-09T03:55:11;12.87;;;6.53;;
17251;SDS011;8742;51.716;8.790;2022-07-09T03:57:38;11.63;;;5.87;;
17251;SDS011;8742;51.716;8.790;2022-07-09T04:00:05;19.63;;;6.43;;
17251;SDS011;8742;51.716;8.790;2022-07-09T04:02:33;11.60;;;6.50;;
17251;SDS011;8742;51.716;8.790;2022-07-09T04:05:00;19.37;;;7.50;;
17251;SDS011;8742;51.716;8.790;2022-07-09T04:07:27;17.23;;;6.80;;
17251;SDS011;8742;51.716;8.790;2022-07-09T04:09:54;12.43;;;6.50;;
17251;SDS011;8742;51.716;8.790;2022-07-09T04:12:22;13.37;;;6.27;;
17251;SDS011;8742;51.716;8.790;2022-07-09T04:14:49;15.73;;;6.13;;
17251;SDS011;8742;51.716;8.790;2022-07-09T04:17:16;10.13;;;6.47;;
17251;SDS011;8742;51.716;8.790;2022-07-09T04:19:43;10.23;;;6.07;;
17251;SDS011;8742;51.716;8.790;2022-07-09T04:22:10;13.57;;;7.37;;
17251;SDS011;8742;51.716;8.790;2022-07-09T04:24:37;14.93;;;6.60;;
17251;SDS011;8742;51.716;8.790;2022-07-09T04:27:04;19.30;;;7.00;;
17251;SDS011;8742;51.716;8.790;2022-07-09T04:29:33;11.77;;;6.27;;
17251;SDS011;8742;51.716;8.790;2022-07-09T04:34:27;13.03;;;6.70;;
17251;SDS011;8742;51.716;8.790;2022-07-09T04:36:54;9.63;;;6.97;;
17251;SDS011;8742;51.716;8.790;2022-07-09T04:39:21;11.90;;;6.80;;
17251;SDS011;8742;51.716;8.790;2022-07-09T04:41:49;11.83;;;6.43;;
17251;SDS011;8742;51.716;8.790;2022-07-09T04:44:16;16.10;;;7.30;;
17251;SDS011;8742;51.716;8.790;2022-07-09T04:46:45;16.67;;;7.70;;
17251;SDS011;8742;51.716;8.790;2022-07-09T04:49:12;18.80;;;7.17;;
17251;SDS011;8742;51.716;8.790;2022-07-09T04:51:38;13.10;;;7.40;;
17251;SDS011;8742;51.716;8.790;2022-07-09T04:54:05;15.83;;;6.80;;
17251;SDS011;8742;51.716;8.790;2022-07-09T04:56:32;11.47;;;7.67;;
17251;SDS011;8742;51.716;8.790;2022-07-09T04:58:59;13.70;;;7.43;;
17251;SDS011;8742;51.716;8.790;2022-07-09T05:01:27;16.03;;;8.37;;
17251;SDS011;8742;51.716;8.790;2022-07-09T05:03:56;14.20;;;8.20;;
17251;SDS011;8742;51.716;8.790;2022-07-09T05:06:23;15.27;;;8.20;;
17251;SDS011;8742;51.716;8.790;2022-07-09T05:08:50;17.07;;;7.83;;
17251;SDS011;8742;51.716;8.790;2022-07-09T05:11:17;15.37;;;8.27;;
17251;SDS011;8742;51.716;8.790;2022-07-09T05:13:44;17.97;;;7.57;;
17251;SDS011;8742;51.716;8.790;2022-07-09T05:16:12;20.40;;;7.83;;
17251;SDS011;8742;51.716;8.790;2022-07-09T05:18:39;19.90;;;7.77;;
17251;SDS011;8742;51.716;8.790;2022-07-09T05:21:07;14.33;;;7.63;;
17251;SDS011;8742;51.716;8.790;2022-07-09T05:23:34;13.97;;;7.10;;
17251;SDS011;8742;51.716;8.790;2022-07-09T05:26:01;15.93;;;7.30;;
17251;SDS011;8742;51.716;8.790;2022-07-09T05:28:28;15.93;;;8.53;;
17251;SDS011;8742;51.716;8.790;2022-07-09T05:30:55;16.37;;;8.40;;
17251;SDS011;8742;51.716;8.790;2022-07-09T05:33:22;17.17;;;8.50;;
17251;SDS011;8742;51.716;8.790;2022-07-09T05:35:49;19.90;;;8.47;;
17251;SDS011;8742;51.716;8.790;2022-07-09T05:38:18;17.40;;;8.70;;
17251;SDS011;8742;51.716;8.790;2022-07-09T05:40:46;18.00;;;8.07;;
17251;SDS011;8742;51.716;8.790;2022-07-09T05:43:13;16.10;;;7.97;;
17251;SDS011;8742;51.716;8.790;2022-07-09T05:45:40;15.53;;;8.23;;
17251;SDS011;8742;51.716;8.790;2022-07-09T05:48:06;17.67;;;8.37;;
17251;SDS011;8742;51.716;8.790;2022-07-09T05:50:33;12.80;;;8.10;;
17251;SDS011;8742;51.716;8.790;2022-07-09T05:53:00;15.17;;;8.43;;
17251;SDS011;8742;51.716;8.790;2022-07-09T05:55:29;14.53;;;8.33;;
17251;SDS011;8742;51.716;8.790;2022-07-09T05:57:55;14.60;;;8.43;;
17251;SDS011;8742;51.716;8.790;2022-07-09T06:00:23;16.07;;;9.07;;
17251;SDS011;8742;51.716;8.790;2022-07-09T06:02:50;15.10;;;9.13;;
17251;SDS011;8742;51.716;8.790;2022-07-09T06:05:17;12.40;;;8.23;;
17251;SDS011;8742;51.716;8.790;2022-07-09T06:07:45;12.43;;;8.33;;
17251;SDS011;8742;51.716;8.790;2022-07-09T06:10:12;18.77;;;8.07;;
17251;SDS011;8742;51.716;8.790;2022-07-09T06:12:41;16.53;;;7.23;;
17251;SDS011;8742;51.716;8.790;2022-07-09T06:15:09;11.90;;;7.33;;
17251;SDS011;8742;51.716;8.790;2022-07-09T06:17:36;17.47;;;7.17;;
17251;SDS011;8742;51.716;8.790;2022-07-09T06:20:04;11.97;;;6.67;;
17251;SDS011;8742;51.716;8.790;2022-07-09T06:22:32;14.50;;;6.87;;
17251;SDS011;8742;51.716;8.790;2022-07-09T06:24:59;14.80;;;7.30;;
17251;SDS011;8742;51.716;8.790;2022-07-09T06:27:26;14.27;;;6.93;;
17251;SDS011;8742;51.716;8.790;2022-07-09T06:29:54;12.77;;;6.27;;
17251;SDS011;8742;51.716;8.790;2022-07-09T06:32:21;11.40;;;6.73;;
17251;SDS011;8742;51.716;8.790;2022-07-09T06:34:48;15.13;;;6.80;;
17251;SDS011;8742;51.716;8.790;2022-07-09T06:37:15;10.80;;;5.80;;
17251;SDS011;8742;51.716;8.790;2022-07-09T06:39:42;8.93;;;5.57;;
17251;SDS011;8742;51.716;8.790;2022-07-09T06:42:13;10.50;;;5.83;;
17251;SDS011;8742;51.716;8.790;2022-07-09T06:44:41;13.03;;;6.10;;
17251;SDS011;8742;51.716;8.790;2022-07-09T06:47:10;10.30;;;6.07;;
17251;SDS011;8742;51.716;8.790;2022-07-09T06:49:37;12.87;;;5.43;;
17251;SDS011;8742;51.716;8.790;2022-07-09T06:52:04;9.93;;;5.50;;
17251;SDS011;8742;51.716;8.790;2022-07-09T06:54:32;10.80;;;6.50;;
17251;SDS011;8742;51.716;8.790;2022-07-09T06:56:59;20.80;;;5.63;;
17251;SDS011;8742;51.716;8.790;2022-07-09T06:59:26;11.03;;;5.07;;
17251;SDS011;8742;51.716;8.790;2022-07-09T07:01:53;9.47;;;5.60;;
17251;SDS011;8742;51.716;8.790;2022-07-09T07:04:21;11.30;;;6.40;;
17251;SDS011;8742;51.716;8.790;2022-07-09T07:06:50;9.67;;;5.10;;
17251;SDS011;8742;51.716;8.790;2022-07-09T07:09:17;6.83;;;5.00;;
17251;SDS011;8742;51.716;8.790;2022-07-09T07:11:46;6.23;;;4.40;;
17251;SDS011;8742;51.716;8.790;2022-07-09T07:14:13;8.00;;;4.90;;
17251;SDS011;8742;51.716;8.790;2022-07-09T07:16:41;7.70;;;4.73;;
17251;SDS011;8742;51.716;8.790;2022-07-09T07:19:08;9.87;;;5.57;;
17251;SDS011;8742;51.716;8.790;2022-07-09T07:21:36;12.03;;;5.33;;
17251;SDS011;8742;51.716;8.790;2022-07-09T07:24:04;8.37;;;4.53;;
17251;SDS011;8742;51.716;8.790;2022-07-09T07:26:31;6.50;;;4.07;;
17251;SDS011;8742;51.716;8.790;2022-07-09T07:28:58;11.57;;;4.13;;
17251;SDS011;8742;51.716;8.790;2022-07-09T07:31:25;6.30;;;4.00;;
17251;SDS011;8742;51.716;8.790;2022-07-09T07:33:52;5.23;;;3.63;;
17251;SDS011;8742;51.716;8.790;2022-07-09T07:36:19;6.97;;;4.23;;
17251;SDS011;8742;51.716;8.790;2022-07-09T07:38:47;10.10;;;4.10;;
17251;SDS011;8742;51.716;8.790;2022-07-09T07:41:14;10.90;;;4.37;;
17251;SDS011;8742;51.716;8.790;2022-07-09T07:43:43;6.87;;;3.77;;
17251;SDS011;8742;51.716;8.790;2022-07-09T07:46:10;10.90;;;4.20;;
17251;SDS011;8742;51.716;8.790;2022-07-09T07:48:37;5.77;;;3.47;;
17251;SDS011;8742;51.716;8.790;2022-07-09T07:51:06;8.00;;;3.90;;
17251;SDS011;8742;51.716;8.790;2022-07-09T07:53:34;7.20;;;3.30;;
17251;SDS011;8742;51.716;8.790;2022-07-09T07:56:02;10.47;;;4.03;;
17251;SDS011;8742;51.716;8.790;2022-07-09T07:58:30;7.03;;;3.27;;
17251;SDS011;8742;51.716;8.790;2022-07-09T08:00:57;5.63;;;3.50;;
17251;SDS011;8742;51.716;8.790;2022-07-09T08:03:24;4.40;;;3.47;;
17251;SDS011;8742;51.716;8.790;2022-07-09T08:05:51;6.93;;;3.60;;
17251;SDS011;8742;51.716;8.790;2022-07-09T08:08:18;4.03;;;3.23;;
17251;SDS011;8742;51.716;8.790;2022-07-09T08:10:45;5.67;;;3.53;;
17251;SDS011;8742;51.716;8.790;2022-07-09T08:13:15;3.97;;;3.07;;
17251;SDS011;8742;51.716;8.790;2022-07-09T08:15:42;8.37;;;3.70;;
17251;SDS011;8742;51.716;8.790;2022-07-09T08:18:09;7.13;;;3.77;;
17251;SDS011;8742;51.716;8.790;2022-07-09T08:20:37;3.90;;;2.60;;
17251;SDS011;8742;51.716;8.790;2022-07-09T08:23:05;4.23;;;2.80;;
17251;SDS011;8742;51.716;8.790;2022-07-09T08:25:31;4.20;;;2.90;;
17251;SDS011;8742;51.716;8.790;2022-07-09T08:27:59;6.90;;;3.03;;
17251;SDS011;8742;51.716;8.790;2022-07-09T08:30:27;4.47;;;2.77;;
17251;SDS011;8742;51.716;8.790;2022-07-09T08:32:54;3.83;;;2.37;;
17251;SDS011;8742;51.716;8.790;2022-07-09T08:35:21;4.03;;;2.97;;
17251;SDS011;8742;51.716;8.790;2022-07-09T08:37:50;9.00;;;2.97;;
17251;SDS011;8742;51.716;8.790;2022-07-09T08:40:17;7.00;;;2.80;;
17251;SDS011;8742;51.716;8.790;2022-07-09T08:42:44;3.10;;;2.70;;
17251;SDS011;8742;51.716;8.790;2022-07-09T08:45:11;4.50;;;2.53;;
17251;SDS011;8742;51.716;8.790;2022-07-09T08:47:41;5.07;;;2.97;;
17251;SDS011;8742;51.716;8.790;2022-07-09T08:50:09;4.37;;;2.87;;
17251;SDS011;8742;51.716;8.790;2022-07-09T08:52:36;4.17;;;2.43;;
17251;SDS011;8742;51.716;8.790;2022-07-09T08:55:06;7.13;;;2.70;;
17251;SDS011;8742;51.716;8.790;2022-07-09T08:57:34;3.10;;;2.53;;
17251;SDS011;8742;51.716;8.790;2022-07-09T09:00:01;4.93;;;2.30;;
17251;SDS011;8742;51.716;8.790;2022-07-09T09:02:33;7.90;;;2.23;;
17251;SDS011;8742;51.716;8.790;2022-07-09T09:05:06;5.00;;;2.33;;
17251;SDS011;8742;51.716;8.790;2022-07-09T09:07:35;4.87;;;2.47;;
17251;SDS011;8742;51.716;8.790;2022-07-09T09:10:02;4.83;;;2.43;;
17251;SDS011;8742;51.716;8.790;2022-07-09T09:12:29;4.10;;;2.40;;
17251;SDS011;8742;51.716;8.790;2022-07-09T09:14:56;3.10;;;1.87;;
17251;SDS011;8742;51.716;8.790;2022-07-09T09:17:23;3.57;;;2.20;;
17251;SDS011;8742;51.716;8.790;2022-07-09T09:19:50;5.70;;;2.53;;
17251;SDS011;8742;51.716;8.790;2022-07-09T09:22:18;7.97;;;2.33;;
17251;SDS011;8742;51.716;8.790;2022-07-09T09:24:48;5.43;;;2.30;;
17251;SDS011;8742;51.716;8.790;2022-07-09T09:27:16;4.80;;;2.50;;
17251;SDS011;8742;51.716;8.790;2022-07-09T09:29:49;3.73;;;2.60;;
17251;SDS011;8742;51.716;8.790;2022-07-09T09:32:19;2.43;;;2.10;;
17251;SDS011;8742;51.716;8.790;2022-07-09T09:34:50;5.17;;;2.50;;
17251;SDS011;8742;51.716;8.790;2022-07-09T09:37:28;4.77;;;2.60;;
17251;SDS011;8742;51.716;8.790;2022-07-09T09:39:55;9.50;;;2.63;;
17251;SDS011;8742;51.716;8.790;2022-07-09T09:42:25;2.73;;;2.50;;
17251;SDS011;8742;51.716;8.790;2022-07-09T09:44:54;4.77;;;2.83;;
17251;SDS011;8742;51.716;8.790;2022-07-09T09:47:26;4.03;;;2.60;;
17251;SDS011;8742;51.716;8.790;2022-07-09T09:49:54;7.93;;;3.17;;
17251;SDS011;8742;51.716;8.790;2022-07-09T09:52:22;6.33;;;2.90;;
17251;SDS011;8742;51.716;8.790;2022-07-09T09:54:52;5.03;;;3.10;;
17251;SDS011;8742;51.716;8.790;2022-07-09T09:57:21;7.50;;;3.23;;
17251;SDS011;8742;51.716;8.790;2022-07-09T09:59:51;6.97;;;3.57;;
17251;SDS011;8742;51.716;8.790;2022-07-09T10:02:19;4.07;;;2.73;;
17251;SDS011;8742;51.716;8.790;2022-07-09T10:04:47;4.70;;;3.00;;
17251;SDS011;8742;51.716;8.790;2022-07-09T10:07:14;4.20;;;2.93;;
17251;SDS011;8742;51.716;8.790;2022-07-09T10:09:53;4.97;;;3.00;;
17251;SDS011;8742;51.716;8.790;2022-07-09T10:12:25;3.93;;;2.97;;
17251;SDS011;8742;51.716;8.790;2022-07-09T10:14:53;5.03;;;3.10;;
17251;SDS011;8742;51.716;8.790;2022-07-09T10:17:21;4.27;;;2.70;;
17251;SDS011;8742;51.716;8.790;2022-07-09T10:19:51;3.13;;;2.57;;
17251;SDS011;8742;51.716;8.790;2022-07-09T10:22:19;6.43;;;2.97;;
17251;SDS011;8742;51.716;8.790;2022-07-09T10:24:49;3.30;;;2.70;;
17251;SDS011;8742;51.716;8.790;2022-07-09T10:27:18;5.27;;;3.53;;
17251;SDS011;8742;51.716;8.790;2022-07-09T10:29:52;4.87;;;2.77;;
17251;SDS011;8742;51.716;8.790;2022-07-09T10:32:21;2.73;;;2.50;;
17251;SDS011;8742;51.716;8.790;2022-07-09T10:34:58;5.60;;;2.20;;
17251;SDS011;8742;51.716;8.790;2022-07-09T10:37:33;5.23;;;2.40;;
17251;SDS011;8742;51.716;8.790;2022-07-09T10:40:04;7.83;;;2.30;;
17251;SDS011;8742;51.716;8.790;2022-07-09T10:42:37;7.30;;;3.13;;
17251;SDS011;8742;51.716;8.790;2022-07-09T10:45:15;8.33;;;2.70;;
17251;SDS011;8742;51.716;8.790;2022-07-09T10:47:55;3.23;;;2.33;;
17251;SDS011;8742;51.716;8.790;2022-07-09T10:50:23;6.10;;;2.33;;
17251;SDS011;8742;51.716;8.790;2022-07-09T10:52:51;2.20;;;2.00;;
17251;SDS011;8742;51.716;8.790;2022-07-09T10:55:18;4.93;;;2.23;;
17251;SDS011;8742;51.716;8.790;2022-07-09T10:57:47;2.70;;;2.00;;
17251;SDS011;8742;51.716;8.790;2022-07-09T11:00:15;5.77;;;1.90;;
17251;SDS011;8742;51.716;8.790;2022-07-09T11:02:52;1.63;;;1.53;;
17251;SDS011;8742;51.716;8.790;2022-07-09T11:05:19;3.10;;;1.87;;
17251;SDS011;8742;51.716;8.790;2022-07-09T11:08:00;1.73;;;1.63;;
17251;SDS011;8742;51.716;8.790;2022-07-09T11:10:29;2.83;;;1.80;;
17251;SDS011;8742;51.716;8.790;2022-07-09T11:12:59;2.03;;;1.70;;
17251;SDS011;8742;51.716;8.790;2022-07-09T11:15:27;3.60;;;1.60;;
17251;SDS011;8742;51.716;8.790;2022-07-09T11:17:56;4.27;;;2.00;;
17251;SDS011;8742;51.716;8.790;2022-07-09T11:20:24;3.60;;;1.70;;
17251;SDS011;8742;51.716;8.790;2022-07-09T11:22:51;4.73;;;2.07;;
17251;SDS011;8742;51.716;8.790;2022-07-09T11:25:21;3.27;;;1.80;;
17251;SDS011;8742;51.716;8.790;2022-07-09T11:27:49;1.87;;;1.70;;
17251;SDS011;8742;51.716;8.790;2022-07-09T11:30:17;1.70;;;1.60;;
17251;SDS011;8742;51.716;8.790;2022-07-09T11:32:44;2.23;;;1.50;;
17251;SDS011;8742;51.716;8.790;2022-07-09T11:35:12;1.70;;;1.60;;
17251;SDS011;8742;51.716;8.790;2022-07-09T11:37:49;2.30;;;1.97;;
17251;SDS011;8742;51.716;8.790;2022-07-09T11:40:16;3.63;;;2.10;;
17251;SDS011;8742;51.716;8.790;2022-07-09T11:42:43;5.07;;;2.20;;
17251;SDS011;8742;51.716;8.790;2022-07-09T11:45:10;2.60;;;1.70;;
17251;SDS011;8742;51.716;8.790;2022-07-09T11:47:39;4.30;;;1.93;;
17251;SDS011;8742;51.716;8.790;2022-07-09T11:50:07;3.80;;;2.00;;
17251;SDS011;8742;51.716;8.790;2022-07-09T11:52:36;1.90;;;1.70;;
17251;SDS011;8742;51.716;8.790;2022-07-09T11:55:09;2.70;;;1.73;;
17251;SDS011;8742;51.716;8.790;2022-07-09T11:57:37;3.23;;;1.63;;
17251;SDS011;8742;51.716;8.790;2022-07-09T12:00:06;3.23;;;1.53;;
17251;SDS011;8742;51.716;8.790;2022-07-09T12:02:35;3.97;;;1.90;;
17251;SDS011;8742;51.716;8.790;2022-07-09T12:05:05;4.87;;;1.80;;
17251;SDS011;8742;51.716;8.790;2022-07-09T12:07:34;7.33;;;2.50;;
17251;SDS011;8742;51.716;8.790;2022-07-09T12:10:02;10.87;;;2.80;;
17251;SDS011;8742;51.716;8.790;2022-07-09T12:12:32;8.00;;;2.63;;
17251;SDS011;8742;51.716;8.790;2022-07-09T12:14:59;8.13;;;2.43;;
17251;SDS011;8742;51.716;8.790;2022-07-09T12:17:27;7.00;;;2.97;;
17251;SDS011;8742;51.716;8.790;2022-07-09T12:19:58;3.47;;;2.60;;
17251;SDS011;8742;51.716;8.790;2022-07-09T12:22:26;3.03;;;2.33;;
17251;SDS011;8742;51.716;8.790;2022-07-09T12:24:53;3.80;;;2.03;;
17251;SDS011;8742;51.716;8.790;2022-07-09T12:27:20;3.67;;;2.30;;
17251;SDS011;8742;51.716;8.790;2022-07-09T12:29:47;4.67;;;2.40;;
17251;SDS011;8742;51.716;8.790;2022-07-09T12:32:14;2.57;;;2.03;;
17251;SDS011;8742;51.716;8.790;2022-07-09T12:34:41;2.47;;;2.03;;
17251;SDS011;8742;51.716;8.790;2022-07-09T12:37:08;2.37;;;2.13;;
17251;SDS011;8742;51.716;8.790;2022-07-09T12:39:36;2.33;;;1.80;;
17251;SDS011;8742;51.716;8.790;2022-07-09T12:42:03;2.37;;;2.13;;
17251;SDS011;8742;51.716;8.790;2022-07-09T12:44:30;2.30;;;2.10;;
17251;SDS011;8742;51.716;8.790;2022-07-09T12:46:57;2.10;;;1.90;;
17251;SDS011;8742;51.716;8.790;2022-07-09T12:49:24;5.37;;;2.20;;
17251;SDS011;8742;51.716;8.790;2022-07-09T12:51:51;2.53;;;2.23;;
17251;SDS011;8742;51.716;8.790;2022-07-09T12:54:18;2.53;;;1.87;;
17251;SDS011;8742;51.716;8.790;2022-07-09T12:56:46;3.90;;;2.30;;
17251;SDS011;8742;51.716;8.790;2022-07-09T12:59:15;3.13;;;1.83;;
17251;SDS011;8742;51.716;8.790;2022-07-09T13:01:42;1.90;;;1.67;;
17251;SDS011;8742;51.716;8.790;2022-07-09T13:04:09;2.03;;;1.77;;
17251;SDS011;8742;51.716;8.790;2022-07-09T13:06:36;3.10;;;2.23;;
17251;SDS011;8742;51.716;8.790;2022-07-09T13:09:05;2.97;;;2.27;;
17251;SDS011;8742;51.716;8.790;2022-07-09T13:11:33;3.83;;;1.70;;
17251;SDS011;8742;51.716;8.790;2022-07-09T13:14:02;5.27;;;1.90;;
17251;SDS011;8742;51.716;8.790;2022-07-09T13:16:29;2.10;;;1.90;;
17251;SDS011;8742;51.716;8.790;2022-07-09T13:18:56;1.70;;;1.60;;
17251;SDS011;8742;51.716;8.790;2022-07-09T13:21:23;3.97;;;2.03;;
17251;SDS011;8742;51.716;8.790;2022-07-09T13:23:50;2.63;;;1.73;;
17251;SDS011;8742;51.716;8.790;2022-07-09T13:26:18;2.50;;;1.83;;
17251;SDS011;8742;51.716;8.790;2022-07-09T13:28:46;3.23;;;1.83;;
17251;SDS011;8742;51.716;8.790;2022-07-09T13:31:14;2.90;;;2.00;;
17251;SDS011;8742;51.716;8.790;2022-07-09T13:33:41;3.28;;;1.83;;
17251;SDS011;8742;51.716;8.790;2022-07-09T13:36:09;9.52;;;2.17;;
17251;SDS011;8742;51.716;8.790;2022-07-09T13:38:36;2.15;;;2.05;;
17251;SDS011;8742;51.716;8.790;2022-07-09T13:41:03;2.25;;;1.80;;
17251;SDS011;8742;51.716;8.790;2022-07-09T13:43:30;2.85;;;1.95;;
17251;SDS011;8742;51.716;8.790;2022-07-09T13:45:58;2.30;;;1.95;;
17251;SDS011;8742;51.716;8.790;2022-07-09T13:48:27;3.17;;;2.15;;
17251;SDS011;8742;51.716;8.790;2022-07-09T13:50:53;2.90;;;1.80;;
17251;SDS011;8742;51.716;8.790;2022-07-09T13:53:20;2.63;;;2.10;;
17251;SDS011;8742;51.716;8.790;2022-07-09T13:55:47;4.50;;;1.92;;
17251;SDS011;8742;51.716;8.790;2022-07-09T13:58:14;1.88;;;1.70;;
17251;SDS011;8742;51.716;8.790;2022-07-09T14:00:41;5.03;;;1.88;;
17251;SDS011;8742;51.716;8.790;2022-07-09T14:03:08;4.82;;;2.13;;
17251;SDS011;8742;51.716;8.790;2022-07-09T14:05:37;8.57;;;1.63;;
17251;SDS011;8742;51.716;8.790;2022-07-09T14:08:04;2.30;;;1.70;;
17251;SDS011;8742;51.716;8.790;2022-07-09T14:10:31;1.60;;;1.50;;
17251;SDS011;8742;51.716;8.790;2022-07-09T14:12:58;5.05;;;1.77;;
17251;SDS011;8742;51.716;8.790;2022-07-09T14:15:25;2.90;;;1.50;;
17251;SDS011;8742;51.716;8.790;2022-07-09T14:17:52;3.33;;;1.52;;
17251;SDS011;8742;51.716;8.790;2022-07-09T14:20:19;2.83;;;1.30;;
17251;SDS011;8742;51.716;8.790;2022-07-09T14:22:48;1.98;;;1.33;;
17251;SDS011;8742;51.716;8.790;2022-07-09T14:25:15;2.90;;;1.40;;
17251;SDS011;8742;51.716;8.790;2022-07-09T14:27:42;2.17;;;1.60;;
17251;SDS011;8742;51.716;8.790;2022-07-09T14:30:09;3.25;;;1.30;;
17251;SDS011;8742;51.716;8.790;2022-07-09T14:32:37;1.40;;;1.25;;
17251;SDS011;8742;51.716;8.790;2022-07-09T14:35:04;3.00;;;1.63;;
17251;SDS011;8742;51.716;8.790;2022-07-09T14:37:31;1.13;;;0.82;;
17251;SDS011;8742;51.716;8.790;2022-07-09T14:39:59;1.45;;;1.00;;
17251;SDS011;8742;51.716;8.790;2022-07-09T14:42:26;1.05;;;0.93;;
17251;SDS011;8742;51.716;8.790;2022-07-09T14:44:53;1.15;;;1.08;;
17251;SDS011;8742;51.716;8.790;2022-07-09T14:47:20;1.85;;;1.00;;
17251;SDS011;8742;51.716;8.790;2022-07-09T14:49:47;4.32;;;1.17;;
17251;SDS011;8742;51.716;8.790;2022-07-09T14:52:14;1.63;;;1.15;;
17251;SDS011;8742;51.716;8.790;2022-07-09T14:54:41;2.17;;;1.13;;
17251;SDS011;8742;51.716;8.790;2022-07-09T14:57:10;1.23;;;1.10;;
17251;SDS011;8742;51.716;8.790;2022-07-09T14:59:37;2.30;;;1.15;;
17251;SDS011;8742;51.716;8.790;2022-07-09T15:02:04;7.22;;;0.90;;